createdAt,value
2018-10-17T00:00:17.956Z,1003.49
2018-10-17T00:01:18.016Z,1003.51
2018-10-17T00:02:17.920Z,1003.52
2018-10-17T00:03:17.909Z,1003.52
2018-10-17T00:04:17.900Z,1003.53
2018-10-17T00:05:17.921Z,1003.51
2018-10-17T00:06:17.876Z,1003.50
2018-10-17T00:07:17.867Z,1003.51
2018-10-17T00:08:17.855Z,1003.44
2018-10-17T00:09:17.852Z,1003.47
2018-10-17T00:10:17.836Z,1003.45
2018-10-17T00:11:17.852Z,1003.48
2018-10-17T00:12:17.814Z,1003.43
2018-10-17T00:13:17.795Z,1003.47
2018-10-17T00:14:17.787Z,1003.45
2018-10-17T00:15:17.778Z,1003.42
2018-10-17T00:16:17.769Z,1003.45
2018-10-17T00:17:17.769Z,1003.42
2018-10-17T00:18:17.743Z,1003.38
2018-10-17T00:19:17.732Z,1003.40
2018-10-17T00:20:17.718Z,1003.42
2018-10-17T00:21:17.716Z,1003.41
2018-10-17T00:22:17.718Z,1003.41
2018-10-17T00:23:17.690Z,1003.44
2018-10-17T00:24:17.682Z,1003.41
2018-10-17T00:25:17.668Z,1003.39
2018-10-17T00:26:17.657Z,1003.39
2018-10-17T00:27:17.671Z,1003.43
2018-10-17T00:28:17.632Z,1003.45
2018-10-17T00:29:17.727Z,1003.40
2018-10-17T00:30:17.618Z,1003.42
2018-10-17T00:31:17.601Z,1003.43
2018-10-17T00:32:17.605Z,1003.44
2018-10-17T00:33:17.583Z,1003.37
2018-10-17T00:34:17.569Z,1003.39
2018-10-17T00:35:17.626Z,1003.34
2018-10-17T00:36:17.551Z,1003.39
2018-10-17T00:37:17.560Z,1003.38
2018-10-17T00:38:17.528Z,1003.36
2018-10-17T00:39:17.516Z,1003.37
2018-10-17T00:40:17.545Z,1003.40
2018-10-17T00:41:17.590Z,1003.40
2018-10-17T00:42:17.499Z,1003.38
2018-10-17T00:43:17.588Z,1003.39
2018-10-17T00:44:17.462Z,1003.36
2018-10-17T00:45:17.445Z,1003.38
2018-10-17T00:46:17.436Z,1003.42
2018-10-17T00:47:17.444Z,1003.38
2018-10-17T00:48:17.418Z,1003.38
2018-10-17T00:49:17.400Z,1003.40
2018-10-17T00:50:17.416Z,1003.35
2018-10-17T00:51:17.383Z,1003.38
2018-10-17T00:52:17.366Z,1003.34
2018-10-17T00:53:17.366Z,1003.37
2018-10-17T00:54:17.352Z,1003.30
2018-10-17T00:55:17.342Z,1003.36
2018-10-17T00:56:17.354Z,1003.30
2018-10-17T00:57:17.311Z,1003.29
2018-10-17T00:58:17.305Z,1003.32
2018-10-17T00:59:17.293Z,1003.29
2018-10-17T01:00:17.279Z,1003.28
2018-10-17T01:01:17.375Z,1003.27
2018-10-17T01:02:17.295Z,1003.20
2018-10-17T01:03:17.247Z,1003.19
2018-10-17T01:04:17.237Z,1003.21
2018-10-17T01:05:17.230Z,1003.20
2018-10-17T01:06:17.235Z,1003.20
2018-10-17T01:07:17.202Z,1003.21
2018-10-17T01:08:17.193Z,1003.20
2018-10-17T01:09:17.183Z,1003.24
2018-10-17T01:10:17.177Z,1003.19
2018-10-17T01:11:17.165Z,1003.18
2018-10-17T01:12:17.167Z,1003.20
2018-10-17T01:13:17.138Z,1003.21
2018-10-17T01:14:17.124Z,1003.22
2018-10-17T01:15:17.113Z,1003.14
2018-10-17T01:16:17.107Z,1003.17
2018-10-17T01:17:17.113Z,1003.14
2018-10-17T01:18:17.087Z,1003.12
2018-10-17T01:19:17.068Z,1003.12
2018-10-17T01:20:17.059Z,1003.11
2018-10-17T01:21:17.052Z,1003.10
2018-10-17T01:22:17.061Z,1003.08
2018-10-17T01:23:17.149Z,1003.05
2018-10-17T01:24:17.021Z,1003.07
2018-10-17T01:25:17.005Z,1003.07
2018-10-17T01:26:16.993Z,1003.07
2018-10-17T01:27:16.997Z,1003.06
2018-10-17T01:28:16.972Z,1003.04
2018-10-17T01:29:17.078Z,1003.05
2018-10-17T01:30:16.954Z,1003.10
2018-10-17T01:31:17.049Z,1003.05
2018-10-17T01:32:16.947Z,1003.05
2018-10-17T01:33:16.923Z,1003.05
2018-10-17T01:34:16.930Z,1003.06
2018-10-17T01:35:16.914Z,1003.07
2018-10-17T01:36:16.891Z,1003.06
2018-10-17T01:37:16.923Z,1003.08
2018-10-17T01:38:16.859Z,1003.11
2018-10-17T01:39:16.848Z,1003.08
2018-10-17T01:40:16.842Z,1003.14
2018-10-17T01:41:16.971Z,1003.12
2018-10-17T01:42:16.842Z,1003.12
2018-10-17T01:43:16.894Z,1003.07
2018-10-17T01:44:16.832Z,1003.11
2018-10-17T01:45:16.785Z,1003.12
2018-10-17T01:46:16.772Z,1003.05
2018-10-17T01:47:16.914Z,1003.03
2018-10-17T01:48:16.752Z,1003.07
2018-10-17T01:49:16.754Z,1003.09
2018-10-17T01:50:16.739Z,1003.02
2018-10-17T01:51:16.718Z,1003.01
2018-10-17T01:52:16.726Z,1003.03
2018-10-17T01:53:16.700Z,1003.02
2018-10-17T01:54:16.691Z,1003.01
2018-10-17T01:55:16.680Z,1003.03
2018-10-17T01:56:16.672Z,1002.98
2018-10-17T01:57:16.681Z,1003.04
2018-10-17T01:58:16.653Z,1002.97
2018-10-17T01:59:16.630Z,1002.98
2018-10-17T02:00:16.619Z,1002.96
2018-10-17T02:01:16.612Z,1002.93
2018-10-17T02:02:16.602Z,1002.90
2018-10-17T02:03:16.611Z,1002.87
2018-10-17T02:04:16.579Z,1002.88
2018-10-17T02:05:16.652Z,1002.85
2018-10-17T02:06:16.555Z,1002.80
2018-10-17T02:07:16.620Z,1002.79
2018-10-17T02:08:16.534Z,1002.77
2018-10-17T02:09:16.520Z,1002.77
2018-10-17T02:10:16.507Z,1002.71
2018-10-17T02:11:16.594Z,1002.76
2018-10-17T02:12:16.488Z,1002.74
2018-10-17T02:13:16.501Z,1002.69
2018-10-17T02:14:16.473Z,1002.69
2018-10-17T02:15:16.459Z,1002.70
2018-10-17T02:16:16.450Z,1002.68
2018-10-17T02:17:16.539Z,1002.70
2018-10-17T02:18:16.419Z,1002.67
2018-10-17T02:19:16.428Z,1002.69
2018-10-17T02:20:16.399Z,1002.69
2018-10-17T02:21:16.401Z,1002.70
2018-10-17T02:22:16.407Z,1002.66
2018-10-17T02:23:16.404Z,1002.68
2018-10-17T02:24:16.373Z,1002.68
2018-10-17T02:25:16.431Z,1002.70
2018-10-17T02:26:16.339Z,1002.65
2018-10-17T02:27:16.344Z,1002.65
2018-10-17T02:28:16.320Z,1002.68
2018-10-17T02:29:16.351Z,1002.68
2018-10-17T02:30:16.293Z,1002.64
2018-10-17T02:31:16.389Z,1002.66
2018-10-17T02:32:16.267Z,1002.67
2018-10-17T02:33:16.282Z,1002.66
2018-10-17T02:34:16.250Z,1002.69
2018-10-17T02:35:16.426Z,1002.70
2018-10-17T02:36:16.229Z,1002.65
2018-10-17T02:37:16.389Z,1002.69
2018-10-17T02:38:17.022Z,1002.71
2018-10-17T02:39:16.717Z,1002.70
2018-10-17T02:40:16.182Z,1002.70
2018-10-17T02:41:16.215Z,1002.67
2018-10-17T02:42:16.156Z,1002.66
2018-10-17T02:43:16.248Z,1002.67
2018-10-17T02:44:16.173Z,1002.66
2018-10-17T02:45:16.128Z,1002.63
2018-10-17T02:46:16.119Z,1002.66
2018-10-17T02:47:16.180Z,1002.61
2018-10-17T02:48:16.103Z,1002.68
2018-10-17T02:49:16.182Z,1002.64
2018-10-17T02:50:16.084Z,1002.71
2018-10-17T02:51:16.056Z,1002.65
2018-10-17T02:52:16.073Z,1002.67
2018-10-17T02:53:16.141Z,1002.70
2018-10-17T02:54:16.053Z,1002.69
2018-10-17T02:55:16.080Z,1002.71
2018-10-17T02:56:16.007Z,1002.69
2018-10-17T02:57:15.995Z,1002.70
2018-10-17T02:58:15.989Z,1002.72
2018-10-17T02:59:16.057Z,1002.69
2018-10-17T03:00:15.963Z,1002.72
2018-10-17T03:01:16.038Z,1002.71
2018-10-17T03:02:15.953Z,1002.70
2018-10-17T03:03:15.926Z,1002.70
2018-10-17T03:04:15.917Z,1002.73
2018-10-17T03:05:16.056Z,1002.69
2018-10-17T03:06:15.899Z,1002.66
2018-10-17T03:07:15.993Z,1002.68
2018-10-17T03:08:15.893Z,1002.69
2018-10-17T03:09:15.862Z,1002.73
2018-10-17T03:10:15.850Z,1002.70
2018-10-17T03:11:15.951Z,1002.72
2018-10-17T03:12:15.833Z,1002.75
2018-10-17T03:13:15.914Z,1002.78
2018-10-17T03:14:15.804Z,1002.74
2018-10-17T03:15:15.793Z,1002.75
2018-10-17T03:16:15.782Z,1002.77
2018-10-17T03:17:15.845Z,1002.79
2018-10-17T03:18:15.784Z,1002.80
2018-10-17T03:19:15.763Z,1002.78
2018-10-17T03:20:15.751Z,1002.79
2018-10-17T03:21:15.727Z,1002.80
2018-10-17T03:22:15.719Z,1002.81
2018-10-17T03:23:15.769Z,1002.82
2018-10-17T03:24:15.695Z,1002.81
2018-10-17T03:25:15.775Z,1002.82
2018-10-17T03:26:15.678Z,1002.87
2018-10-17T03:27:15.665Z,1002.89
2018-10-17T03:28:15.665Z,1002.82
2018-10-17T03:29:15.779Z,1002.86
2018-10-17T03:30:15.634Z,1002.88
2018-10-17T03:31:15.716Z,1002.87
2018-10-17T03:32:15.632Z,1002.93
2018-10-17T03:33:15.597Z,1002.96
2018-10-17T03:34:15.605Z,1002.95
2018-10-17T03:35:15.654Z,1002.95
2018-10-17T03:36:15.568Z,1002.98
2018-10-17T03:37:15.712Z,1002.95
2018-10-17T03:38:15.573Z,1002.99
2018-10-17T03:39:15.541Z,1002.98
2018-10-17T03:40:15.529Z,1003.00
2018-10-17T03:41:15.655Z,1002.98
2018-10-17T03:42:15.502Z,1002.97
2018-10-17T03:43:15.632Z,1002.94
2018-10-17T03:44:15.501Z,1002.96
2018-10-17T03:45:15.467Z,1002.96
2018-10-17T03:46:15.459Z,1002.94
2018-10-17T03:47:15.571Z,1002.98
2018-10-17T03:48:15.438Z,1002.95
2018-10-17T03:49:15.452Z,1002.96
2018-10-17T03:50:15.450Z,1002.93
2018-10-17T03:51:15.408Z,1002.97
2018-10-17T03:52:15.398Z,1002.95
2018-10-17T03:53:15.597Z,1002.95
2018-10-17T03:54:15.373Z,1002.95
2018-10-17T03:55:15.372Z,1002.96
2018-10-17T03:56:15.365Z,1002.99
2018-10-17T03:57:15.345Z,1002.99
2018-10-17T03:58:15.330Z,1003.01
2018-10-17T03:59:15.459Z,1003.03
2018-10-17T04:00:15.327Z,1003.04
2018-10-17T04:01:15.306Z,1003.03
2018-10-17T04:02:15.307Z,1003.08
2018-10-17T04:03:15.412Z,1003.06
2018-10-17T04:04:15.268Z,1003.11
2018-10-17T04:05:15.367Z,1003.09
2018-10-17T04:06:15.247Z,1003.09
2018-10-17T04:07:15.328Z,1003.12
2018-10-17T04:08:15.217Z,1003.10
2018-10-17T04:09:15.213Z,1003.07
2018-10-17T04:10:15.205Z,1003.12
2018-10-17T04:11:15.296Z,1003.10
2018-10-17T04:12:15.204Z,1003.13
2018-10-17T04:13:15.211Z,1003.08
2018-10-17T04:14:15.154Z,1003.07
2018-10-17T04:15:15.164Z,1003.12
2018-10-17T04:16:15.136Z,1003.09
2018-10-17T04:17:15.257Z,1003.08
2018-10-17T04:18:15.111Z,1003.07
2018-10-17T04:19:15.205Z,1003.07
2018-10-17T04:20:15.114Z,1003.09
2018-10-17T04:21:15.086Z,1003.09
2018-10-17T04:22:15.069Z,1003.12
2018-10-17T04:23:15.202Z,1003.09
2018-10-17T04:24:15.052Z,1003.11
2018-10-17T04:25:15.103Z,1003.09
2018-10-17T04:26:15.050Z,1003.08
2018-10-17T04:27:15.013Z,1003.13
2018-10-17T04:28:15.002Z,1003.16
2018-10-17T04:29:15.128Z,1003.18
2018-10-17T04:30:14.982Z,1003.10
2018-10-17T04:31:15.145Z,1003.18
2018-10-17T04:32:14.958Z,1003.18
2018-10-17T04:33:14.952Z,1003.17
2018-10-17T04:34:14.938Z,1003.12
2018-10-17T04:35:14.964Z,1003.15
2018-10-17T04:36:14.970Z,1003.11
2018-10-17T04:37:14.957Z,1003.11
2018-10-17T04:38:14.893Z,1003.10
2018-10-17T04:39:14.883Z,1003.09
2018-10-17T04:40:14.870Z,1003.08
2018-10-17T04:41:14.942Z,1003.09
2018-10-17T04:42:14.869Z,1003.10
2018-10-17T04:43:14.922Z,1003.08
2018-10-17T04:44:14.832Z,1003.04
2018-10-17T04:45:14.834Z,1003.10
2018-10-17T04:46:14.829Z,1003.14
2018-10-17T04:47:14.901Z,1003.10
2018-10-17T04:48:14.793Z,1003.13
2018-10-17T04:49:14.855Z,1003.11
2018-10-17T04:50:14.763Z,1003.13
2018-10-17T04:51:14.760Z,1003.15
2018-10-17T04:52:14.766Z,1003.11
2018-10-17T04:53:14.865Z,1003.10
2018-10-17T04:54:14.722Z,1003.11
2018-10-17T04:55:14.789Z,1003.11
2018-10-17T04:56:14.720Z,1003.09
2018-10-17T04:57:14.684Z,1003.06
2018-10-17T04:58:14.675Z,1003.06
2018-10-17T04:59:14.778Z,1003.03
2018-10-17T05:00:14.651Z,1003.03
2018-10-17T05:01:14.718Z,1003.02
2018-10-17T05:02:14.640Z,1003.05
2018-10-17T05:03:14.621Z,1003.04
2018-10-17T05:04:14.608Z,1003.01
2018-10-17T05:05:14.710Z,1003.05
2018-10-17T05:06:14.614Z,1003.02
2018-10-17T05:07:14.609Z,1003.00
2018-10-17T05:08:14.569Z,1002.99
2018-10-17T05:09:14.574Z,1003.02
2018-10-17T05:10:14.543Z,1003.02
2018-10-17T05:11:14.628Z,1003.02
2018-10-17T05:12:14.519Z,1003.01
2018-10-17T05:13:14.642Z,1002.99
2018-10-17T05:14:14.501Z,1003.03
2018-10-17T05:15:14.513Z,1002.99
2018-10-17T05:16:14.482Z,1002.99
2018-10-17T05:17:14.533Z,1003.01
2018-10-17T05:18:14.481Z,1003.02
2018-10-17T05:19:14.567Z,1003.01
2018-10-17T05:20:14.440Z,1003.07
2018-10-17T05:21:14.419Z,1003.04
2018-10-17T05:22:14.411Z,1003.01
2018-10-17T05:23:14.489Z,1003.05
2018-10-17T05:24:14.387Z,1003.01
2018-10-17T05:25:14.502Z,1003.07
2018-10-17T05:26:14.373Z,1003.07
2018-10-17T05:27:14.359Z,1003.10
2018-10-17T05:28:14.351Z,1003.08
2018-10-17T05:29:14.496Z,1003.09
2018-10-17T05:30:14.325Z,1003.03
2018-10-17T05:31:14.352Z,1003.02
2018-10-17T05:32:14.305Z,1003.01
2018-10-17T05:33:14.296Z,1003.01
2018-10-17T05:34:14.286Z,1003.02
2018-10-17T05:35:14.319Z,1003.00
2018-10-17T05:36:14.258Z,1003.00
2018-10-17T05:37:14.357Z,1003.03
2018-10-17T05:38:14.256Z,1002.99
2018-10-17T05:39:14.230Z,1003.01
2018-10-17T05:40:14.220Z,1003.02
2018-10-17T05:41:14.312Z,1003.04
2018-10-17T05:42:14.211Z,1003.04
2018-10-17T05:43:14.273Z,1003.04
2018-10-17T05:44:14.173Z,1003.04
2018-10-17T05:45:14.168Z,1003.11
2018-10-17T05:46:14.152Z,1003.10
2018-10-17T05:47:14.279Z,1003.12
2018-10-17T05:48:14.135Z,1003.08
2018-10-17T05:49:14.208Z,1003.11
2018-10-17T05:50:14.131Z,1003.15
2018-10-17T05:51:14.120Z,1003.12
2018-10-17T05:52:14.111Z,1003.16
2018-10-17T05:53:14.184Z,1003.10
2018-10-17T05:54:14.062Z,1003.15
2018-10-17T05:55:14.134Z,1003.18
2018-10-17T05:56:14.038Z,1003.22
2018-10-17T05:57:14.036Z,1003.18
2018-10-17T05:58:14.039Z,1003.13
2018-10-17T05:59:14.138Z,1003.20
2018-10-17T06:00:14.007Z,1003.16
2018-10-17T06:01:14.167Z,1003.15
2018-10-17T06:02:14.095Z,1003.22
2018-10-17T06:03:13.987Z,1003.20
2018-10-17T06:04:13.961Z,1003.20
2018-10-17T06:05:14.005Z,1003.18
2018-10-17T06:06:13.936Z,1003.21
2018-10-17T06:07:14.056Z,1003.22
2018-10-17T06:08:13.918Z,1003.20
2018-10-17T06:09:13.904Z,1003.21
2018-10-17T06:10:13.956Z,1003.21
2018-10-17T06:11:14.011Z,1003.20
2018-10-17T06:12:13.904Z,1003.23
2018-10-17T06:13:13.975Z,1003.21
2018-10-17T06:14:13.855Z,1003.20
2018-10-17T06:15:13.845Z,1003.17
2018-10-17T06:16:13.873Z,1003.19
2018-10-17T06:17:13.848Z,1003.16
2018-10-17T06:18:13.816Z,1003.18
2018-10-17T06:19:13.963Z,1003.19
2018-10-17T06:20:13.789Z,1003.19
2018-10-17T06:21:13.767Z,1003.19
2018-10-17T06:22:13.780Z,1003.16
2018-10-17T06:23:13.817Z,1003.19
2018-10-17T06:24:13.740Z,1003.21
2018-10-17T06:25:13.803Z,1003.22
2018-10-17T06:26:13.722Z,1003.25
2018-10-17T06:27:13.720Z,1003.25
2018-10-17T06:28:13.729Z,1003.23
2018-10-17T06:29:13.745Z,1003.23
2018-10-17T06:30:13.673Z,1003.28
2018-10-17T06:31:13.744Z,1003.32
2018-10-17T06:32:13.691Z,1003.29
2018-10-17T06:33:13.657Z,1003.33
2018-10-17T06:34:13.818Z,1003.36
2018-10-17T06:35:13.689Z,1003.46
2018-10-17T06:36:13.603Z,1003.53
2018-10-17T06:37:13.652Z,1003.60
2018-10-17T06:38:13.602Z,1003.54
2018-10-17T06:39:13.580Z,1003.54
2018-10-17T06:40:13.557Z,1003.57
2018-10-17T06:41:13.831Z,1003.66
2018-10-17T06:42:13.565Z,1003.67
2018-10-17T06:43:13.605Z,1003.60
2018-10-17T06:44:13.520Z,1003.54
2018-10-17T06:45:13.505Z,1003.51
2018-10-17T06:46:13.495Z,1003.55
2018-10-17T06:47:13.587Z,1003.63
2018-10-17T06:48:13.504Z,1003.68
2018-10-17T06:49:13.506Z,1003.61
2018-10-17T06:50:13.452Z,1003.63
2018-10-17T06:51:13.496Z,1003.63
2018-10-17T06:52:13.487Z,1003.64
2018-10-17T06:53:13.496Z,1003.61
2018-10-17T06:54:13.508Z,1003.58
2018-10-17T06:55:13.483Z,1003.56
2018-10-17T06:56:13.389Z,1003.54
2018-10-17T06:57:13.392Z,1003.56
2018-10-17T06:58:13.362Z,1003.54
2018-10-17T06:59:13.415Z,1003.61
2018-10-17T07:00:13.361Z,1003.63
2018-10-17T07:01:13.455Z,1003.67
2018-10-17T07:02:13.401Z,1003.64
2018-10-17T07:03:13.337Z,1003.68
2018-10-17T07:04:13.306Z,1003.62
2018-10-17T07:05:13.395Z,1003.59
2018-10-17T07:06:13.275Z,1003.62
2018-10-17T07:07:13.348Z,1003.60
2018-10-17T07:08:13.286Z,1003.58
2018-10-17T07:09:13.272Z,1003.58
2018-10-17T07:10:13.241Z,1003.59
2018-10-17T07:11:13.290Z,1003.61
2018-10-17T07:12:13.206Z,1003.62
2018-10-17T07:13:13.348Z,1003.57
2018-10-17T07:14:13.196Z,1003.64
2018-10-17T07:15:13.217Z,1003.64
2018-10-17T07:16:13.170Z,1003.68
2018-10-17T07:17:13.236Z,1003.63
2018-10-17T07:18:13.162Z,1003.64
2018-10-17T07:19:13.263Z,1003.62
2018-10-17T07:20:13.117Z,1003.66
2018-10-17T07:21:13.114Z,1003.60
2018-10-17T07:22:13.099Z,1003.66
2018-10-17T07:23:13.144Z,1003.67
2018-10-17T07:24:13.080Z,1003.65
2018-10-17T07:25:13.070Z,1003.61
2018-10-17T07:26:13.081Z,1003.60
2018-10-17T07:27:13.046Z,1003.60
2018-10-17T07:28:13.036Z,1003.64
2018-10-17T07:29:13.095Z,1003.60
2018-10-17T07:30:13.011Z,1003.61
2018-10-17T07:31:13.076Z,1003.63
2018-10-17T07:32:13.003Z,1003.62
2018-10-17T07:33:12.985Z,1003.62
2018-10-17T07:34:12.993Z,1003.56
2018-10-17T07:35:12.964Z,1003.60
2018-10-17T07:36:13.038Z,1003.59
2018-10-17T07:37:12.935Z,1003.65
2018-10-17T07:38:12.927Z,1003.65
2018-10-17T07:39:12.920Z,1003.65
2018-10-17T07:40:12.924Z,1003.71
2018-10-17T07:41:12.891Z,1003.65
2018-10-17T07:42:12.915Z,1003.67
2018-10-17T07:43:12.890Z,1003.66
2018-10-17T07:44:12.878Z,1003.68
2018-10-17T07:45:12.849Z,1003.65
2018-10-17T07:46:12.847Z,1003.66
2018-10-17T07:47:12.825Z,1003.66
2018-10-17T07:48:12.905Z,1003.65
2018-10-17T07:49:12.841Z,1003.64
2018-10-17T07:50:12.814Z,1003.61
2018-10-17T07:51:12.822Z,1003.63
2018-10-17T07:52:12.772Z,1003.65
2018-10-17T07:53:12.933Z,1003.66
2018-10-17T07:54:12.953Z,1003.66
2018-10-17T07:55:12.741Z,1003.69
2018-10-17T07:56:12.766Z,1003.67
2018-10-17T07:57:12.727Z,1003.67
2018-10-17T07:58:12.726Z,1003.66
2018-10-17T07:59:12.690Z,1003.67
2018-10-17T08:00:12.799Z,1003.66
2018-10-17T08:01:12.679Z,1003.71
2018-10-17T08:02:12.664Z,1003.68
2018-10-17T08:03:12.686Z,1003.64
2018-10-17T08:04:12.641Z,1003.69
2018-10-17T08:05:12.630Z,1003.69
2018-10-17T08:06:12.757Z,1003.65
2018-10-17T08:07:12.603Z,1003.70
2018-10-17T08:08:12.593Z,1003.68
2018-10-17T08:09:12.627Z,1003.70
2018-10-17T08:10:12.580Z,1003.73
2018-10-17T08:11:12.566Z,1003.72
2018-10-17T08:12:12.637Z,1003.74
2018-10-17T08:13:12.542Z,1003.69
2018-10-17T08:14:12.584Z,1003.70
2018-10-17T08:15:12.520Z,1003.71
2018-10-17T08:16:12.513Z,1003.75
2018-10-17T08:17:12.495Z,1003.70
2018-10-17T08:18:12.566Z,1003.68
2018-10-17T08:19:12.471Z,1003.67
2018-10-17T08:20:12.480Z,1003.71
2018-10-17T08:21:12.493Z,1003.66
2018-10-17T08:22:12.444Z,1003.66
2018-10-17T08:23:12.451Z,1003.64
2018-10-17T08:24:12.507Z,1003.65
2018-10-17T08:25:12.407Z,1003.68
2018-10-17T08:26:12.394Z,1003.69
2018-10-17T08:27:12.437Z,1003.73
2018-10-17T08:28:12.393Z,1003.72
2018-10-17T08:29:12.365Z,1003.69
2018-10-17T08:30:12.492Z,1003.68
2018-10-17T08:31:12.339Z,1003.66
2018-10-17T08:32:12.335Z,1003.66
2018-10-17T08:33:12.329Z,1003.67
2018-10-17T08:34:12.348Z,1003.66
2018-10-17T08:35:12.360Z,1003.65
2018-10-17T08:36:12.632Z,1003.63
2018-10-17T08:37:12.725Z,1003.65
2018-10-17T08:38:12.300Z,1003.63
2018-10-17T08:39:12.255Z,1003.68
2018-10-17T08:40:12.260Z,1003.69
2018-10-17T08:41:12.377Z,1003.67
2018-10-17T08:42:12.250Z,1003.65
2018-10-17T08:43:12.231Z,1003.66
2018-10-17T08:44:12.323Z,1003.66
2018-10-17T08:45:12.270Z,1003.65
2018-10-17T08:46:12.174Z,1003.62
2018-10-17T08:47:12.177Z,1003.63
2018-10-17T08:48:12.182Z,1003.57
2018-10-17T08:49:12.148Z,1003.59
2018-10-17T08:50:12.297Z,1003.58
2018-10-17T08:51:12.130Z,1003.57
2018-10-17T08:52:12.113Z,1003.57
2018-10-17T08:53:12.106Z,1003.62
2018-10-17T08:54:12.113Z,1003.58
2018-10-17T08:55:12.085Z,1003.53
2018-10-17T08:56:12.093Z,1003.54
2018-10-17T08:57:12.061Z,1003.59
2018-10-17T08:58:12.070Z,1003.57
2018-10-17T08:59:12.065Z,1003.56
2018-10-17T09:00:12.024Z,1003.60
2018-10-17T09:01:12.016Z,1003.61
2018-10-17T09:02:12.123Z,1003.64
2018-10-17T09:03:11.989Z,1003.62
2018-10-17T09:04:12.005Z,1003.62
2018-10-17T09:05:11.982Z,1003.61
2018-10-17T09:06:12.118Z,1003.64
2018-10-17T09:07:11.952Z,1003.61
2018-10-17T09:08:11.960Z,1003.61
2018-10-17T09:09:11.925Z,1003.62
2018-10-17T09:10:11.935Z,1003.64
2018-10-17T09:11:11.900Z,1003.66
2018-10-17T09:12:11.975Z,1003.65
2018-10-17T09:13:11.883Z,1003.64
2018-10-17T09:14:11.991Z,1003.66
2018-10-17T09:15:11.900Z,1003.66
2018-10-17T09:16:11.946Z,1003.69
2018-10-17T09:17:11.837Z,1003.63
2018-10-17T09:18:11.879Z,1003.63
2018-10-17T09:19:11.843Z,1003.64
2018-10-17T09:20:12.172Z,1003.56
2018-10-17T09:21:12.147Z,1003.63
2018-10-17T09:22:12.197Z,1003.62
2018-10-17T09:23:11.777Z,1003.63
2018-10-17T09:24:11.919Z,1003.63
2018-10-17T09:25:11.810Z,1003.63
2018-10-17T09:26:11.763Z,1003.64
2018-10-17T09:27:11.732Z,1003.62
2018-10-17T09:28:11.810Z,1003.67
2018-10-17T09:29:11.726Z,1003.65
2018-10-17T09:30:11.736Z,1003.62
2018-10-17T09:31:11.706Z,1003.62
2018-10-17T09:32:11.672Z,1003.61
2018-10-17T09:33:11.665Z,1003.69
2018-10-17T09:34:11.729Z,1003.67
2018-10-17T09:35:11.714Z,1003.65
2018-10-17T09:36:11.703Z,1003.66
2018-10-17T09:37:11.635Z,1003.68
2018-10-17T09:38:11.609Z,1003.67
2018-10-17T09:39:11.615Z,1003.69
2018-10-17T09:40:11.662Z,1003.65
2018-10-17T09:41:11.600Z,1003.65
2018-10-17T09:42:11.654Z,1003.65
2018-10-17T09:43:11.574Z,1003.62
2018-10-17T09:44:11.556Z,1003.61
2018-10-17T09:45:11.529Z,1003.61
2018-10-17T09:46:11.566Z,1003.58
2018-10-17T09:47:11.513Z,1003.56
2018-10-17T09:48:11.590Z,1003.55
2018-10-17T09:49:11.512Z,1003.59
2018-10-17T09:50:11.544Z,1003.62
2018-10-17T09:51:11.465Z,1003.61
2018-10-17T09:52:11.545Z,1003.61
2018-10-17T09:53:11.447Z,1003.61
2018-10-17T09:54:11.581Z,1003.61
2018-10-17T09:55:11.433Z,1003.60
2018-10-17T09:56:11.408Z,1003.61
2018-10-17T09:57:11.400Z,1003.63
2018-10-17T09:58:11.429Z,1003.65
2018-10-17T09:59:11.410Z,1003.66
2018-10-17T10:00:11.475Z,1003.63
2018-10-17T10:01:11.377Z,1003.59
2018-10-17T10:02:11.418Z,1003.63
2018-10-17T10:03:11.332Z,1003.63
2018-10-17T10:04:11.416Z,1003.66
2018-10-17T10:05:11.342Z,1003.62
2018-10-17T10:06:11.357Z,1003.66
2018-10-17T10:07:11.285Z,1003.61
2018-10-17T10:08:11.282Z,1003.66
2018-10-17T10:09:11.268Z,1003.66
2018-10-17T10:10:11.361Z,1003.60
2018-10-17T10:11:11.329Z,1003.64
2018-10-17T10:12:11.259Z,1003.62
2018-10-17T10:13:11.221Z,1003.61
2018-10-17T10:14:11.240Z,1003.65
2018-10-17T10:15:11.198Z,1003.64
2018-10-17T10:16:11.332Z,1003.64
2018-10-17T10:17:11.238Z,1003.67
2018-10-17T10:18:11.174Z,1003.60
2018-10-17T10:19:11.161Z,1003.63
2018-10-17T10:20:11.152Z,1003.61
2018-10-17T10:21:11.135Z,1003.62
2018-10-17T10:22:11.208Z,1003.63
2018-10-17T10:23:11.187Z,1003.64
2018-10-17T10:24:11.223Z,1003.63
2018-10-17T10:25:11.104Z,1003.65
2018-10-17T10:26:11.106Z,1003.71
2018-10-17T10:27:11.069Z,1003.72
2018-10-17T10:28:11.125Z,1003.73
2018-10-17T10:29:11.053Z,1003.73
2018-10-17T10:30:11.055Z,1003.77
2018-10-17T10:31:11.033Z,1003.78
2018-10-17T10:32:11.036Z,1003.76
2018-10-17T10:33:11.006Z,1003.80
2018-10-17T10:34:11.039Z,1003.80
2018-10-17T10:35:10.982Z,1003.80
2018-10-17T10:36:11.091Z,1003.82
2018-10-17T10:37:10.985Z,1003.82
2018-10-17T10:38:10.956Z,1003.81
2018-10-17T10:39:10.938Z,1003.86
2018-10-17T10:40:10.970Z,1003.83
2018-10-17T10:41:10.920Z,1003.80
2018-10-17T10:42:11.027Z,1003.85
2018-10-17T10:43:10.907Z,1003.91
2018-10-17T10:44:10.999Z,1003.86
2018-10-17T10:45:11.035Z,1003.84
2018-10-17T10:46:10.890Z,1003.85
2018-10-17T10:47:10.865Z,1003.86
2018-10-17T10:48:10.911Z,1003.83
2018-10-17T10:49:10.846Z,1003.82
2018-10-17T10:50:10.937Z,1003.74
2018-10-17T10:51:10.973Z,1003.82
2018-10-17T10:52:10.839Z,1003.77
2018-10-17T10:53:10.792Z,1003.69
2018-10-17T10:54:10.846Z,1003.67
2018-10-17T10:55:10.782Z,1003.63
2018-10-17T10:56:10.858Z,1003.73
2018-10-17T10:57:10.837Z,1003.67
2018-10-17T10:58:10.818Z,1003.68
2018-10-17T10:59:10.815Z,1003.64
2018-10-17T11:00:10.755Z,1003.67
2018-10-17T11:01:10.706Z,1003.64
2018-10-17T11:02:10.857Z,1003.65
2018-10-17T11:03:10.742Z,1003.58
2018-10-17T11:04:10.680Z,1003.61
2018-10-17T11:05:10.759Z,1003.59
2018-10-17T11:06:10.653Z,1003.56
2018-10-17T11:07:10.661Z,1003.58
2018-10-17T11:08:10.728Z,1003.56
2018-10-17T11:09:10.621Z,1003.57
2018-10-17T11:10:10.612Z,1003.55
2018-10-17T11:11:10.626Z,1003.53
2018-10-17T11:12:10.587Z,1003.49
2018-10-17T11:13:10.594Z,1003.48
2018-10-17T11:14:10.840Z,1003.47
2018-10-17T11:15:10.558Z,1003.47
2018-10-17T11:16:10.546Z,1003.49
2018-10-17T11:17:10.607Z,1003.47
2018-10-17T11:18:10.525Z,1003.46
2018-10-17T11:19:10.525Z,1003.47
2018-10-17T11:20:10.501Z,1003.42
2018-10-17T11:21:10.609Z,1003.39
2018-10-17T11:22:10.481Z,1003.44
2018-10-17T11:23:10.574Z,1003.48
2018-10-17T11:24:10.477Z,1003.47
2018-10-17T11:25:10.447Z,1003.43
2018-10-17T11:26:10.429Z,1003.43
2018-10-17T11:27:10.553Z,1003.48
2018-10-17T11:28:10.416Z,1003.45
2018-10-17T11:29:10.496Z,1003.45
2018-10-17T11:30:10.387Z,1003.41
2018-10-17T11:31:10.378Z,1003.44
2018-10-17T11:32:10.372Z,1003.41
2018-10-17T11:33:10.445Z,1003.42
2018-10-17T11:34:10.378Z,1003.37
2018-10-17T11:35:10.429Z,1003.41
2018-10-17T11:36:10.336Z,1003.39
2018-10-17T11:37:10.687Z,1003.35
2018-10-17T11:38:10.325Z,1003.33
2018-10-17T11:39:10.437Z,1003.34
2018-10-17T11:40:10.417Z,1003.35
2018-10-17T11:41:10.341Z,1003.32
2018-10-17T11:42:10.308Z,1003.30
2018-10-17T11:43:10.269Z,1003.27
2018-10-17T11:44:10.247Z,1003.26
2018-10-17T11:45:10.349Z,1003.28
2018-10-17T11:46:10.256Z,1003.22
2018-10-17T11:47:10.313Z,1003.26
2018-10-17T11:48:10.220Z,1003.25
2018-10-17T11:49:10.212Z,1003.22
2018-10-17T11:50:10.177Z,1003.17
2018-10-17T11:51:10.221Z,1003.21
2018-10-17T11:52:10.156Z,1003.19
2018-10-17T11:53:10.287Z,1003.25
2018-10-17T11:54:10.139Z,1003.20
2018-10-17T11:55:10.132Z,1003.19
2018-10-17T11:56:10.125Z,1003.17
2018-10-17T11:57:10.279Z,1003.19
2018-10-17T11:58:10.110Z,1003.21
2018-10-17T11:59:10.193Z,1003.20
2018-10-17T12:00:10.081Z,1003.23
2018-10-17T12:01:10.058Z,1003.22
2018-10-17T12:02:10.050Z,1003.22
2018-10-17T12:03:10.103Z,1003.18
2018-10-17T12:04:10.278Z,1003.17
2018-10-17T12:05:10.264Z,1003.17